createdAt,value
2023-01-26T00:00:20.147Z,75.60424805
2023-01-26T00:01:20.654Z,75.70800781
2023-01-26T00:02:21.085Z,75.70800781
2023-01-26T00:03:21.502Z,75.81176758
2023-01-26T00:04:22.535Z,75.81176758
2023-01-26T00:05:23.029Z,75.81176758
2023-01-26T00:06:23.480Z,76.01928711
2023-01-26T00:07:23.864Z,76.01928711
2023-01-26T00:08:24.416Z,76.22680664
2023-01-26T00:09:24.830Z,76.33056641
2023-01-26T00:10:25.214Z,76.43432617
2023-01-26T00:11:26.369Z,76.53808594
2023-01-26T00:12:27.326Z,76.64794922
2023-01-26T00:13:27.864Z,76.33056641
2023-01-26T00:14:28.254Z,75.91552734
2023-01-26T00:15:28.745Z,75.91552734
2023-01-26T00:16:29.291Z,76.01928711
2023-01-26T00:17:29.668Z,76.01928711
2023-01-26T00:18:30.166Z,76.01928711
2023-01-26T00:19:30.612Z,76.12304688
2023-01-26T00:20:30.963Z,76.22680664
2023-01-26T00:21:31.597Z,76.22680664
2023-01-26T00:22:32.872Z,76.12304688
2023-01-26T00:23:33.273Z,76.12304688
2023-01-26T00:24:33.809Z,76.12304688
2023-01-26T00:25:34.196Z,76.01928711
2023-01-26T00:26:34.697Z,76.12304688
2023-01-26T00:27:35.117Z,76.01928711
2023-01-26T00:28:35.585Z,75.91552734
2023-01-26T00:29:37.006Z,75.60424805
2023-01-26T00:31:07.714Z,75.29296875
2023-01-26T00:32:08.727Z,75.29296875
2023-01-26T00:33:09.515Z,75.18920898
2023-01-26T00:34:10.059Z,75.29296875
2023-01-26T00:35:10.478Z,75.50048828
2023-01-26T00:36:10.994Z,75.39672852
2023-01-26T00:37:11.441Z,75.18920898
2023-01-26T00:38:11.785Z,75.18920898
2023-01-26T00:39:12.315Z,74.76806641
2023-01-26T00:40:13.098Z,74.76806641
2023-01-26T00:41:13.111Z,74.76806641
2023-01-26T00:42:13.576Z,74.45678711
2023-01-26T00:43:14.578Z,74.35302734
2023-01-26T00:44:15.119Z,74.14550781
2023-01-26T00:45:15.528Z,73.93798828
2023-01-26T00:46:16.020Z,74.04174805
2023-01-26T00:47:16.469Z,74.14550781
2023-01-26T00:48:16.823Z,74.45678711
2023-01-26T00:49:17.320Z,74.45678711
2023-01-26T00:50:17.745Z,74.35302734
2023-01-26T00:51:18.151Z,74.24926758
2023-01-26T00:52:18.582Z,74.04174805
2023-01-26T00:53:19.529Z,74.04174805
2023-01-26T00:54:20.013Z,73.93798828
2023-01-26T00:55:20.426Z,73.83422852
2023-01-26T00:56:20.921Z,73.83422852
2023-01-26T00:57:21.378Z,73.83422852
2023-01-26T00:58:21.756Z,73.83422852
2023-01-26T00:59:22.215Z,73.73046875
2023-01-26T01:00:22.611Z,73.41918945
2023-01-26T01:01:23.104Z,73.52294922
2023-01-26T01:02:23.771Z,73.52294922
2023-01-26T01:03:24.560Z,73.52294922
2023-01-26T01:04:25.093Z,73.62670898
2023-01-26T01:05:25.462Z,73.62670898
2023-01-26T01:06:25.948Z,73.62670898
2023-01-26T01:07:26.449Z,73.52294922
2023-01-26T01:08:26.847Z,73.41918945
2023-01-26T01:09:27.320Z,73.52294922
2023-01-26T01:10:27.749Z,73.62670898
2023-01-26T01:11:28.069Z,73.69384766
2023-01-26T01:12:28.564Z,73.83422852
2023-01-26T01:13:29.565Z,74.00512695
2023-01-26T01:14:30.121Z,74.24926758
2023-01-26T01:15:30.498Z,74.35302734
2023-01-26T01:16:30.963Z,74.35302734
2023-01-26T01:17:31.675Z,74.56054688
2023-01-26T01:18:31.905Z,74.87182617
2023-01-26T01:19:32.343Z,74.98168945
2023-01-26T01:20:32.768Z,74.98168945
2023-01-26T01:21:33.152Z,75.18920898
2023-01-26T01:22:33.739Z,75.08544922
2023-01-26T01:23:34.543Z,75.08544922
2023-01-26T01:24:35.073Z,75.29296875
2023-01-26T01:25:35.490Z,75.18920898
2023-01-26T01:26:36.363Z,75.32348633
2023-01-26T01:28:06.946Z,75.50048828
2023-01-26T01:29:07.390Z,75.60424805
2023-01-26T01:30:08.696Z,75.50048828
2023-01-26T01:31:09.139Z,75.29296875
2023-01-26T01:32:09.439Z,74.98168945
2023-01-26T01:33:40.562Z,74.98168945
2023-01-26T01:35:11.260Z,75.08544922
2023-01-26T01:36:11.699Z,75.08544922
2023-01-26T01:37:12.187Z,75.29296875
2023-01-26T01:38:12.575Z,75.29296875
2023-01-26T01:39:13.015Z,75.29296875
2023-01-26T01:40:13.618Z,75.18920898
2023-01-26T01:41:13.924Z,75.29296875
2023-01-26T01:42:14.437Z,75.29296875
2023-01-26T01:43:14.841Z,75.18920898
2023-01-26T01:44:15.885Z,75.08544922
2023-01-26T01:45:16.354Z,75.18920898
2023-01-26T01:46:16.798Z,75.29296875
2023-01-26T01:47:17.291Z,75.18920898
2023-01-26T01:48:17.676Z,75.18920898
2023-01-26T01:49:18.165Z,75.08544922
2023-01-26T01:50:18.632Z,75.18920898
2023-01-26T01:51:19.030Z,75.21972656
2023-01-26T01:52:19.515Z,75.32348633
2023-01-26T01:53:20.824Z,75.42724609
2023-01-26T01:54:21.234Z,75.32348633
2023-01-26T01:55:21.676Z,75.32348633
2023-01-26T01:56:22.162Z,75.39672852
2023-01-26T01:57:22.547Z,75.29296875
2023-01-26T01:58:23.593Z,75.39672852
2023-01-26T01:59:24.004Z,75.39672852
2023-01-26T02:00:24.503Z,75.29296875
2023-01-26T02:01:24.948Z,75.29296875
2023-01-26T02:02:25.369Z,75.18920898
2023-01-26T02:03:25.921Z,75.08544922
2023-01-26T02:04:27.049Z,75.18920898
2023-01-26T02:05:27.432Z,75.18920898
2023-01-26T02:06:27.979Z,75.29296875
2023-01-26T02:07:28.369Z,75.18920898
2023-01-26T02:08:28.881Z,75.18920898
2023-01-26T02:09:29.359Z,75.29296875
2023-01-26T02:10:29.739Z,75.29296875
2023-01-26T02:11:30.232Z,75.29296875
2023-01-26T02:12:30.676Z,75.29296875
2023-01-26T02:13:31.896Z,75.29296875
2023-01-26T02:14:32.354Z,75.39672852
2023-01-26T02:15:32.714Z,75.39672852
2023-01-26T02:16:33.299Z,75.39672852
2023-01-26T02:17:33.681Z,75.50048828
2023-01-26T02:18:34.202Z,75.29296875
2023-01-26T02:19:34.582Z,75.08544922
2023-01-26T02:20:34.973Z,74.98168945
2023-01-26T02:21:35.803Z,74.98168945
2023-01-26T02:23:06.455Z,75.01220703
2023-01-26T02:24:07.011Z,75.32348633
2023-01-26T02:25:07.356Z,75.42724609
2023-01-26T02:26:07.799Z,75.42724609
2023-01-26T02:27:08.195Z,75.53100586
2023-01-26T02:28:09.437Z,75.84838867
2023-01-26T02:29:09.880Z,75.84838867
2023-01-26T02:30:40.509Z,75.95214844
2023-01-26T02:32:11.785Z,75.95214844
2023-01-26T02:33:12.148Z,75.74462891
2023-01-26T02:34:12.724Z,75.74462891
2023-01-26T02:35:13.818Z,75.53100586
2023-01-26T02:36:14.221Z,75.74462891
2023-01-26T02:37:14.704Z,75.84838867
2023-01-26T02:38:15.104Z,75.70800781
2023-01-26T02:39:15.617Z,75.70800781
2023-01-26T02:40:16.079Z,75.39672852
2023-01-26T02:41:16.469Z,75.29296875
2023-01-26T02:42:17.004Z,75.29296875
2023-01-26T02:43:17.373Z,75.53100586
2023-01-26T02:44:18.620Z,75.39672852
2023-01-26T02:45:19.028Z,75.32348633
2023-01-26T02:46:19.610Z,75.29296875
2023-01-26T02:47:20.043Z,75.29296875
2023-01-26T02:48:20.386Z,75.18920898
2023-01-26T02:49:20.839Z,75.08544922
2023-01-26T02:50:21.287Z,75.1159668
2023-01-26T02:51:21.686Z,75.18920898
2023-01-26T02:52:22.283Z,75.18920898
2023-01-26T02:53:22.662Z,75.21972656
2023-01-26T02:54:24.104Z,75.21972656
2023-01-26T02:55:24.583Z,75.1159668
2023-01-26T02:56:24.983Z,75.01220703
2023-01-26T02:57:25.513Z,75.1159668
2023-01-26T02:58:26.522Z,75.1159668
2023-01-26T02:59:27.030Z,74.8046875
2023-01-26T03:00:28.331Z,74.90844727
2023-01-26T03:01:31.029Z,75.01220703
2023-01-26T03:02:29.322Z,75.32348633
2023-01-26T03:03:29.767Z,75.32348633
2023-01-26T03:04:30.807Z,75.32348633
2023-01-26T03:05:31.222Z,75.32348633
2023-01-26T03:06:31.708Z,75.32348633
2023-01-26T03:07:32.211Z,75.21972656
2023-01-26T03:08:32.699Z,75.42724609
2023-01-26T03:09:33.240Z,75.32348633
2023-01-26T03:10:33.618Z,75.32348633
2023-01-26T03:11:34.078Z,75.32348633
2023-01-26T03:12:34.649Z,75.1159668
2023-01-26T03:14:06.117Z,75.21972656
2023-01-26T03:15:06.539Z,75.42724609
2023-01-26T03:16:07.287Z,75.42724609
2023-01-26T03:17:07.437Z,75.42724609
2023-01-26T03:18:07.921Z,75.32348633
2023-01-26T03:19:08.491Z,75.21972656
2023-01-26T03:20:09.118Z,75.1159668
2023-01-26T03:21:09.162Z,74.90844727
2023-01-26T03:22:09.673Z,74.70092773
2023-01-26T03:23:10.259Z,74.8046875
2023-01-26T03:24:11.616Z,75.01220703
2023-01-26T03:25:12.013Z,75.01220703
2023-01-26T03:26:12.407Z,75.01220703
2023-01-26T03:27:12.874Z,74.8046875
2023-01-26T03:28:13.297Z,74.8046875
2023-01-26T03:29:13.823Z,74.8046875
2023-01-26T03:30:14.833Z,74.90844727
2023-01-26T03:31:15.254Z,74.90844727
2023-01-26T03:32:15.708Z,75.01220703
2023-01-26T03:33:16.112Z,74.8046875
2023-01-26T03:34:17.203Z,74.70092773
2023-01-26T03:35:17.532Z,74.8046875
2023-01-26T03:36:17.905Z,74.59716797
2023-01-26T03:37:18.336Z,74.59716797
2023-01-26T03:38:18.754Z,74.8046875
2023-01-26T03:39:19.157Z,74.59716797
2023-01-26T03:40:19.579Z,74.38964844
2023-01-26T03:41:19.994Z,74.28588867
2023-01-26T03:42:20.479Z,74.18212891
2023-01-26T03:43:20.908Z,74.07226563
2023-01-26T03:44:22.012Z,74.18212891
2023-01-26T03:45:22.453Z,74.38964844
2023-01-26T03:46:22.926Z,74.59716797
2023-01-26T03:47:23.350Z,74.70092773
2023-01-26T03:48:23.799Z,74.59716797
2023-01-26T03:49:24.316Z,74.59716797
2023-01-26T03:50:24.712Z,74.59716797
2023-01-26T03:51:25.133Z,74.38964844
2023-01-26T03:52:25.608Z,74.18212891
2023-01-26T03:53:26.085Z,74.18212891
2023-01-26T03:54:27.006Z,74.38964844
2023-01-26T03:55:27.489Z,74.59716797
2023-01-26T03:56:27.983Z,74.59716797
2023-01-26T03:57:28.379Z,74.28588867
2023-01-26T03:58:28.848Z,74.28588867
2023-01-26T03:59:29.280Z,74.38964844
2023-01-26T04:00:30.622Z,74.59716797
2023-01-26T04:01:31.077Z,74.70092773
2023-01-26T04:02:31.502Z,74.70092773
2023-01-26T04:03:32.079Z,74.59716797
2023-01-26T04:04:33.007Z,74.59716797
2023-01-26T04:05:33.450Z,74.59716797
2023-01-26T04:06:33.995Z,74.59716797
2023-01-26T04:08:04.841Z,74.59716797
2023-01-26T04:09:05.351Z,74.70092773
2023-01-26T04:10:05.693Z,74.90844727
2023-01-26T04:11:06.083Z,74.8046875
2023-01-26T04:12:06.608Z,74.59716797
2023-01-26T04:13:07.010Z,74.38964844
2023-01-26T04:14:08.387Z,73.96850586
2023-01-26T04:15:08.737Z,73.86474609
2023-01-26T04:16:09.159Z,73.86474609
2023-01-26T04:17:09.525Z,74.07226563
2023-01-26T04:18:09.994Z,74.18212891
2023-01-26T04:19:10.573Z,74.21264648
2023-01-26T04:20:11.381Z,74.31640625
2023-01-26T04:21:11.336Z,74.42016602
2023-01-26T04:22:11.752Z,74.52392578
2023-01-26T04:23:12.211Z,74.31640625
2023-01-26T04:24:16.290Z,74.31640625
2023-01-26T04:25:13.732Z,74.31640625
2023-01-26T04:26:14.194Z,74.31640625
2023-01-26T04:27:14.601Z,74.42016602
2023-01-26T04:28:15.492Z,74.42016602
2023-01-26T04:29:16.096Z,74.21264648
2023-01-26T04:30:16.526Z,74.10888672
2023-01-26T04:31:17.964Z,73.90136719
2023-01-26T04:32:18.346Z,73.90136719
2023-01-26T04:33:18.737Z,73.79760742
2023-01-26T04:34:19.910Z,74.00512695
2023-01-26T04:35:20.389Z,74.10888672
2023-01-26T04:36:20.799Z,74.21264648
2023-01-26T04:37:21.221Z,74.31640625
2023-01-26T04:38:21.606Z,74.62768555
2023-01-26T04:39:22.222Z,74.52392578
2023-01-26T04:40:23.331Z,74.52392578
2023-01-26T04:41:23.864Z,74.52392578
2023-01-26T04:42:24.289Z,74.62768555
2023-01-26T04:43:24.702Z,74.62768555
2023-01-26T04:44:25.820Z,74.84130859
2023-01-26T04:45:26.252Z,74.94506836
2023-01-26T04:46:26.800Z,74.73754883
2023-01-26T04:47:29.308Z,74.62768555
2023-01-26T04:48:27.692Z,74.73754883
2023-01-26T04:49:28.253Z,74.62768555
2023-01-26T04:50:28.758Z,74.52392578
2023-01-26T04:51:29.170Z,74.42016602
2023-01-26T04:52:29.629Z,74.52392578
2023-01-26T04:53:30.009Z,74.62768555
2023-01-26T04:54:31.335Z,74.62768555
2023-01-26T04:55:31.729Z,74.62768555
2023-01-26T04:56:32.160Z,74.62768555
2023-01-26T04:57:32.664Z,74.42016602
2023-01-26T04:59:04.220Z,74.21264648
2023-01-26T05:00:04.871Z,74.18212891
2023-01-26T05:01:05.251Z,74.07226563
2023-01-26T05:02:06.551Z,73.86474609
2023-01-26T05:03:08.947Z,73.96850586
2023-01-26T05:04:07.482Z,73.96850586
2023-01-26T05:05:08.519Z,74.10888672
2023-01-26T05:06:08.897Z,74.21264648
2023-01-26T05:07:09.413Z,74.21264648
2023-01-26T05:08:09.849Z,74.21264648
2023-01-26T05:09:40.520Z,74.00512695
2023-01-26T05:11:11.221Z,74.10888672
2023-01-26T05:12:11.572Z,73.96850586
2023-01-26T05:13:12.127Z,73.76098633
2023-01-26T05:14:12.518Z,73.76098633
2023-01-26T05:15:13.626Z,73.86474609
2023-01-26T05:16:14.122Z,73.76098633
2023-01-26T05:17:14.505Z,73.76098633
2023-01-26T05:18:14.934Z,73.76098633
2023-01-26T05:19:15.386Z,73.76098633
2023-01-26T05:20:15.903Z,73.44970703
2023-01-26T05:21:16.386Z,73.34594727
2023-01-26T05:22:16.744Z,73.13842773
2023-01-26T05:23:17.246Z,73.13842773
2023-01-26T05:24:17.664Z,73.13842773
2023-01-26T05:25:19.142Z,72.82714844
2023-01-26T05:26:19.626Z,72.50976563
2023-01-26T05:27:19.962Z,72.30224609
2023-01-26T05:28:20.361Z,72.54638672
2023-01-26T05:29:20.808Z,72.65014648
2023-01-26T05:30:21.209Z,72.65014648
2023-01-26T05:31:22.430Z,72.65014648
2023-01-26T05:32:22.718Z,72.75390625
2023-01-26T05:33:23.192Z,72.96142578
2023-01-26T05:34:23.619Z,73.27270508
2023-01-26T05:35:25.036Z,72.65014648
2023-01-26T05:36:25.693Z,72.13134766
2023-01-26T05:37:25.926Z,72.13134766
2023-01-26T05:38:26.356Z,72.13134766
2023-01-26T05:39:26.781Z,72.02148438
2023-01-26T05:40:27.175Z,72.16186523
2023-01-26T05:41:27.788Z,72.16186523
2023-01-26T05:42:28.115Z,72.265625
2023-01-26T05:43:28.621Z,72.16186523
2023-01-26T05:44:29.847Z,72.16186523
2023-01-26T05:45:30.270Z,72.36938477
2023-01-26T05:46:31.379Z,72.40600586
2023-01-26T05:47:31.741Z,72.61352539
2023-01-26T05:48:32.121Z,72.82104492
2023-01-26T05:49:32.550Z,72.71728516
2023-01-26T05:51:04.106Z,72.71728516
2023-01-26T05:52:04.191Z,72.92480469
2023-01-26T05:53:04.573Z,72.82104492
2023-01-26T05:54:04.968Z,72.92480469
2023-01-26T05:55:06.143Z,73.13232422
2023-01-26T05:56:06.514Z,73.13232422
2023-01-26T05:57:07.015Z,72.89428711
2023-01-26T05:58:07.434Z,72.68066406
2023-01-26T05:59:07.852Z,72.68066406
2023-01-26T06:00:08.635Z,72.47314453
2023-01-26T06:01:08.742Z,72.16186523
2023-01-26T06:02:09.300Z,71.9543457
2023-01-26T06:03:09.663Z,71.9543457
2023-01-26T06:04:10.126Z,71.74682617
2023-01-26T06:05:11.138Z,71.85058594
2023-01-26T06:06:11.544Z,71.85058594
2023-01-26T06:07:12.101Z,71.98486328
2023-01-26T06:08:12.549Z,72.19238281
2023-01-26T06:09:12.989Z,72.29614258
2023-01-26T06:10:13.867Z,72.50976563
2023-01-26T06:11:13.880Z,72.29614258
2023-01-26T06:12:14.347Z,72.19238281
2023-01-26T06:13:14.720Z,72.40600586
2023-01-26T06:14:15.158Z,72.29614258
2023-01-26T06:15:16.581Z,72.29614258
2023-01-26T06:16:16.991Z,72.16186523
2023-01-26T06:17:17.508Z,72.08862305
2023-01-26T06:18:17.950Z,72.05810547
2023-01-26T06:19:18.369Z,71.74682617
2023-01-26T06:20:18.908Z,71.64306641
2023-01-26T06:21:19.338Z,71.74682617
2023-01-26T06:22:20.120Z,71.53320313
2023-01-26T06:23:20.271Z,75.50048828
2023-01-26T06:24:20.786Z,78.10668945
2023-01-26T06:25:22.164Z,75.60424805
2023-01-26T06:26:22.602Z,73.41308594
2023-01-26T06:27:23.005Z,72.5769043
2023-01-26T06:28:23.457Z,71.9543457
2023-01-26T06:29:23.867Z,71.64306641
2023-01-26T06:30:24.355Z,71.53320313
2023-01-26T06:31:25.644Z,71.32568359
2023-01-26T06:32:26.044Z,70.91064453
2023-01-26T06:33:26.505Z,70.91064453
2023-01-26T06:34:26.878Z,70.703125
2023-01-26T06:35:28.115Z,70.91064453
2023-01-26T06:36:28.540Z,71.0144043
2023-01-26T06:37:29.124Z,71.11816406
2023-01-26T06:38:29.456Z,71.11816406
2023-01-26T06:39:29.849Z,71.11816406
2023-01-26T06:40:30.352Z,71.22192383
2023-01-26T06:41:30.831Z,71.42944336
2023-01-26T06:42:31.310Z,71.42944336
2023-01-26T06:43:31.743Z,71.11816406
2023-01-26T06:44:32.679Z,71.42944336
2023-01-26T06:46:04.271Z,71.11816406
2023-01-26T06:47:04.682Z,70.91064453
2023-01-26T06:48:05.267Z,70.80688477
2023-01-26T06:49:05.673Z,70.91064453
2023-01-26T06:50:06.107Z,71.22192383
2023-01-26T06:51:06.589Z,70.703125
2023-01-26T06:52:07.025Z,70.59936523
2023-01-26T06:53:07.675Z,70.703125
2023-01-26T06:54:07.959Z,70.80688477
2023-01-26T06:55:09.337Z,70.91064453
2023-01-26T06:56:09.756Z,71.11816406
2023-01-26T06:57:10.417Z,71.22192383
2023-01-26T06:58:10.934Z,71.11816406
2023-01-26T06:59:11.342Z,71.0144043
2023-01-26T07:00:12.133Z,71.0144043
2023-01-26T07:01:12.339Z,71.0144043
2023-01-26T07:02:12.769Z,70.91064453
2023-01-26T07:03:13.243Z,71.0144043
2023-01-26T07:04:13.637Z,71.11816406
2023-01-26T07:05:14.803Z,71.11816406
2023-01-26T07:06:15.195Z,71.0144043
2023-01-26T07:07:15.606Z,70.703125
2023-01-26T07:08:16.253Z,70.703125
2023-01-26T07:09:16.565Z,70.91064453
2023-01-26T07:10:17.911Z,70.77636719
2023-01-26T07:11:18.351Z,70.25146484
2023-01-26T07:12:18.755Z,69.94018555
2023-01-26T07:13:19.320Z,69.83642578
2023-01-26T07:14:19.716Z,69.94018555
2023-01-26T07:15:20.167Z,69.94018555
2023-01-26T07:16:21.543Z,70.04394531
2023-01-26T07:17:21.890Z,70.04394531
2023-01-26T07:18:22.394Z,69.97070313
2023-01-26T07:19:22.853Z,70.07446289
2023-01-26T07:20:23.288Z,70.17822266
2023-01-26T07:21:23.744Z,70.3918457
2023-01-26T07:22:24.139Z,70.49560547
2023-01-26T07:23:24.776Z,70.59936523
2023-01-26T07:24:25.167Z,70.703125
2023-01-26T07:25:26.366Z,70.80688477
2023-01-26T07:26:26.789Z,70.703125
2023-01-26T07:27:27.246Z,70.45898438
2023-01-26T07:28:27.739Z,70.35522461
2023-01-26T07:29:28.164Z,70.25146484
2023-01-26T07:30:28.741Z,69.94018555
2023-01-26T07:31:29.849Z,69.83642578
2023-01-26T07:32:30.223Z,70.04394531
2023-01-26T07:33:30.747Z,70.25146484
2023-01-26T07:34:31.128Z,70.04394531
2023-01-26T07:35:32.946Z,69.73266602
2023-01-26T07:37:03.600Z,69.62890625
2023-01-26T07:38:04.006Z,69.62890625
2023-01-26T07:39:06.475Z,69.76318359
2023-01-26T07:40:05.498Z,70.17822266
2023-01-26T07:41:06.088Z,70.59936523
2023-01-26T07:42:06.442Z,70.59936523
2023-01-26T07:43:06.922Z,70.49560547
2023-01-26T07:44:07.393Z,70.28198242
2023-01-26T07:45:07.742Z,70.3918457
2023-01-26T07:46:09.255Z,70.3918457
2023-01-26T07:47:09.543Z,70.52612305
2023-01-26T07:48:10.035Z,70.73364258
2023-01-26T07:49:10.738Z,70.94116211
2023-01-26T07:50:11.338Z,71.04492188
2023-01-26T07:51:11.647Z,71.25854492
2023-01-26T07:52:12.039Z,71.14868164
2023-01-26T07:53:12.539Z,71.04492188
2023-01-26T07:54:13.045Z,70.94116211
2023-01-26T07:55:13.351Z,70.94116211
2023-01-26T07:56:14.591Z,71.25854492
2023-01-26T07:57:15.021Z,71.46606445
2023-01-26T07:58:15.552Z,71.67358398
2023-01-26T07:59:15.999Z,71.88110352
2023-01-26T08:00:16.370Z,71.88110352
2023-01-26T08:01:16.859Z,71.88110352
2023-01-26T08:02:18.018Z,71.67358398
2023-01-26T08:03:18.510Z,71.42944336
2023-01-26T08:04:19.071Z,70.91064453
2023-01-26T08:05:19.443Z,70.80688477
2023-01-26T08:06:19.975Z,71.0144043
2023-01-26T08:07:20.365Z,70.91064453
2023-01-26T08:08:21.808Z,70.80688477
2023-01-26T08:09:22.380Z,70.80688477
2023-01-26T08:10:22.711Z,71.0144043
2023-01-26T08:11:23.125Z,71.0144043
2023-01-26T08:12:23.527Z,70.91064453
2023-01-26T08:13:34.604Z,71.0144043
2023-01-26T08:14:24.412Z,71.11816406
2023-01-26T08:15:25.505Z,71.32568359
2023-01-26T08:16:27.013Z,71.11816406
2023-01-26T08:17:27.344Z,71.11816406
2023-01-26T08:18:27.756Z,71.22192383
2023-01-26T08:19:28.360Z,71.42944336
2023-01-26T08:20:28.805Z,71.32568359
2023-01-26T08:21:29.315Z,71.11816406
2023-01-26T08:22:29.690Z,71.22192383
2023-01-26T08:23:30.054Z,71.22192383
2023-01-26T08:24:30.561Z,71.0144043
2023-01-26T08:25:32.337Z,71.0144043
2023-01-26T08:27:03.026Z,70.703125
2023-01-26T08:28:03.390Z,70.59936523
2023-01-26T08:29:03.923Z,70.91064453
2023-01-26T08:30:04.350Z,71.0144043
2023-01-26T08:31:04.842Z,71.22192383
2023-01-26T08:32:06.269Z,71.32568359
2023-01-26T08:33:06.556Z,71.64306641
2023-01-26T08:34:06.917Z,71.74682617
2023-01-26T08:35:07.471Z,71.74682617
2023-01-26T08:36:08.496Z,71.42944336
2023-01-26T08:37:09.050Z,71.42944336
2023-01-26T08:38:09.437Z,71.74682617
2023-01-26T08:39:09.908Z,71.81396484
2023-01-26T08:40:10.949Z,71.60644531
2023-01-26T08:41:11.036Z,71.39892578
2023-01-26T08:42:11.472Z,70.98388672
2023-01-26T08:43:11.815Z,70.98388672
2023-01-26T08:44:12.219Z,71.29516602
2023-01-26T08:45:12.631Z,70.98388672
2023-01-26T08:46:14.073Z,70.98388672
2023-01-26T08:47:14.502Z,70.56274414
2023-01-26T08:48:14.909Z,70.35522461
2023-01-26T08:49:15.338Z,70.35522461
2023-01-26T08:50:16.797Z,70.25146484
2023-01-26T08:51:17.252Z,70.35522461
2023-01-26T08:52:17.832Z,70.25146484
2023-01-26T08:53:18.210Z,70.25146484
2023-01-26T08:54:18.750Z,70.14770508
2023-01-26T08:55:19.221Z,70.28198242
2023-01-26T08:56:20.561Z,70.17822266
2023-01-26T08:57:21.030Z,70.3918457
2023-01-26T08:58:21.443Z,70.49560547
2023-01-26T08:59:22.028Z,70.703125
2023-01-26T09:00:22.423Z,70.80688477
2023-01-26T09:01:22.929Z,70.91064453
2023-01-26T09:02:24.123Z,71.11816406
2023-01-26T09:03:24.403Z,71.22192383
2023-01-26T09:04:25.000Z,71.56982422
2023-01-26T09:05:25.375Z,71.67358398
2023-01-26T09:06:26.571Z,71.42944336
2023-01-26T09:07:27.025Z,71.32568359
2023-01-26T09:08:27.464Z,71.42944336
2023-01-26T09:09:27.994Z,71.42944336
2023-01-26T09:10:28.420Z,71.42944336
2023-01-26T09:11:28.897Z,71.64306641
2023-01-26T09:12:29.362Z,71.53320313
2023-01-26T09:13:29.783Z,71.53320313
2023-01-26T09:14:30.780Z,71.25854492
2023-01-26T09:16:02.000Z,71.25854492
2023-01-26T09:17:03.134Z,71.25854492
2023-01-26T09:18:03.550Z,71.25854492
2023-01-26T09:19:04.141Z,71.36230469
2023-01-26T09:20:04.614Z,71.25854492
2023-01-26T09:21:05.200Z,71.0144043
2023-01-26T09:22:05.708Z,70.80688477
2023-01-26T09:23:06.118Z,74.87182617
2023-01-26T09:24:06.666Z,72.99804688
2023-01-26T09:25:07.037Z,72.05810547
2023-01-26T09:26:08.326Z,71.42944336
2023-01-26T09:27:08.737Z,71.46606445
2023-01-26T09:28:09.219Z,71.36230469
2023-01-26T09:29:09.669Z,71.56982422
2023-01-26T09:30:10.167Z,71.56982422
2023-01-26T09:31:11.054Z,71.67358398
2023-01-26T09:32:11.322Z,71.77734375
2023-01-26T09:33:11.787Z,71.64306641
2023-01-26T09:34:12.189Z,71.64306641
2023-01-26T09:35:14.682Z,71.53320313
2023-01-26T09:36:13.777Z,71.53320313
2023-01-26T09:37:14.169Z,71.74682617
2023-01-26T09:38:14.582Z,71.32568359
2023-01-26T09:39:15.050Z,71.11816406
2023-01-26T09:40:15.492Z,71.22192383
2023-01-26T09:41:15.967Z,71.32568359
2023-01-26T09:42:16.426Z,71.53320313
2023-01-26T09:43:16.879Z,71.64306641
2023-01-26T09:44:18.247Z,71.39892578
2023-01-26T09:45:18.644Z,71.60644531
2023-01-26T09:46:19.150Z,71.60644531
2023-01-26T09:47:20.485Z,71.39892578
2023-01-26T09:48:24.997Z,72.02148438
2023-01-26T09:49:22.325Z,71.81396484
2023-01-26T09:50:22.707Z,71.19140625
2023-01-26T09:51:23.206Z,71.29516602
2023-01-26T09:52:23.611Z,71.91772461
2023-01-26T09:53:24.040Z,72.13134766
2023-01-26T09:54:24.484Z,72.44262695
2023-01-26T09:55:24.880Z,72.44262695
2023-01-26T09:56:25.880Z,72.85766602
2023-01-26T09:57:26.304Z,73.06518555
2023-01-26T09:58:26.691Z,72.13134766
2023-01-26T09:59:27.212Z,71.81396484
2023-01-26T10:00:27.587Z,71.50268555
2023-01-26T10:01:28.144Z,71.39892578
2023-01-26T10:02:28.471Z,71.39892578
2023-01-26T10:03:28.865Z,71.50268555
2023-01-26T10:04:29.341Z,71.60644531
2023-01-26T10:05:30.152Z,71.39892578
2023-01-26T10:07:01.604Z,71.19140625
2023-01-26T10:08:01.926Z,70.77636719
2023-01-26T10:09:02.355Z,70.77636719
2023-01-26T10:10:02.722Z,70.98388672
2023-01-26T10:11:03.099Z,71.05102539
2023-01-26T10:12:04.505Z,70.94726563
2023-01-26T10:13:04.902Z,71.16088867
2023-01-26T10:14:05.402Z,71.47216797
2023-01-26T10:15:05.775Z,71.78344727
2023-01-26T10:16:06.252Z,72.19848633
2023-01-26T10:17:07.487Z,72.40600586
2023-01-26T10:18:07.858Z,72.40600586
2023-01-26T10:19:08.418Z,72.50976563
2023-01-26T10:20:08.778Z,72.61962891
2023-01-26T10:21:09.240Z,72.82714844
2023-01-26T10:22:09.625Z,72.9309082
2023-01-26T10:23:10.008Z,72.82714844
2023-01-26T10:24:10.628Z,72.82714844
2023-01-26T10:25:11.187Z,72.82714844
2023-01-26T10:26:11.413Z,73.44970703
2023-01-26T10:27:12.482Z,74.07226563
2023-01-26T10:28:12.869Z,73.65722656
2023-01-26T10:29:13.414Z,73.96850586
2023-01-26T10:30:13.761Z,74.18212891
2023-01-26T10:31:14.267Z,73.52294922
2023-01-26T10:32:15.542Z,72.99804688
2023-01-26T10:33:16.527Z,72.79052734
2023-01-26T10:34:16.365Z,72.68676758
2023-01-26T10:35:16.730Z,72.79052734
2023-01-26T10:36:17.110Z,72.79052734
2023-01-26T10:37:18.568Z,72.82714844
2023-01-26T10:38:18.962Z,72.9309082
2023-01-26T10:39:19.481Z,73.13842773
2023-01-26T10:40:19.880Z,73.13842773
2023-01-26T10:41:20.280Z,73.03466797
2023-01-26T10:42:20.796Z,73.03466797
2023-01-26T10:43:21.191Z,73.03466797
2023-01-26T10:44:21.660Z,73.2421875
2023-01-26T10:45:22.103Z,73.34594727
2023-01-26T10:46:22.541Z,73.34594727
2023-01-26T10:47:23.508Z,73.44970703
2023-01-26T10:48:23.913Z,73.5534668
2023-01-26T10:49:24.374Z,73.44970703
2023-01-26T10:50:24.737Z,73.34594727
2023-01-26T10:51:25.134Z,73.34594727
2023-01-26T10:52:25.647Z,73.44970703
2023-01-26T10:53:26.019Z,73.5534668
2023-01-26T10:54:26.540Z,73.5534668
2023-01-26T10:55:26.978Z,73.65722656
2023-01-26T10:56:27.389Z,73.86474609
2023-01-26T10:57:28.663Z,73.86474609
2023-01-26T10:58:29.024Z,73.76098633
2023-01-26T11:00:00.604Z,73.34594727
2023-01-26T11:01:00.948Z,73.13842773
2023-01-26T11:02:01.349Z,73.13842773
2023-01-26T11:03:02.813Z,73.34594727
2023-01-26T11:04:03.197Z,73.44970703